Time;durP1;ratioP1;P1;durP2;ratioP2;P2;SDS_P1;SDS_P2;PMS_P1;PMS_P2;Temp;Humidity;BMP_temperature;BMP_pressure;BME280_temperature;BME280_humidity;BME280_pressure;Samples;Min_cycle;Max_cycle;Signal;HPM_P1;HPM_P2
2024/03/15 00:00:12;;;;;;;1.05;0.98;;;;;;;;;;5049458;27;59246;-77
2024/03/15 00:02:37;;;;;;;0.70;0.70;;;;;;;;;;5047378;28;58476;-76
2024/03/15 00:05:02;;;;;;;0.60;0.60;;;;;;;;;;5049874;28;58604;-76
2024/03/15 00:07:27;;;;;;;0.50;0.50;;;;;;;;;;5048230;28;58917;-76
2024/03/15 00:09:52;;;;;;;1.10;1.00;;;;;;;;;;5048477;27;57951;-76
2024/03/15 00:12:17;;;;;;;1.08;0.98;;;;;;;;;;5049317;27;57792;-76
2024/03/15 00:14:43;;;;;;;0.60;0.60;;;;;;;;;;5045883;27;58426;-75
2024/03/15 00:17:09;;;;;;;0.95;0.80;;;;;;;;;;5048801;28;58412;-76
2024/03/15 00:19:34;;;;;;;0.82;0.70;;;;;;;;;;5047729;28;60222;-76
2024/03/15 00:21:59;;;;;;;1.45;0.68;;;;;;;;;;5048214;28;58868;-76
2024/03/15 00:24:25;;;;;;;0.80;0.80;;;;;;;;;;5048904;28;59121;-77
2024/03/15 00:26:50;;;;;;;0.60;0.60;;;;;;;;;;5047034;28;58898;-76
2024/03/15 00:29:18;;;;;;;0.93;0.80;;;;;;;;;;5048642;27;58344;-76
2024/03/15 00:31:43;;;;;;;0.45;0.45;;;;;;;;;;5048586;28;59401;-75
2024/03/15 00:34:08;;;;;;;0.80;0.77;;;;;;;;;;5047899;27;58480;-76
2024/03/15 00:36:34;;;;;;;0.80;0.80;;;;;;;;;;5048118;27;58387;-75
2024/03/15 00:38:59;;;;;;;2.40;1.02;;;;;;;;;;5047800;28;60166;-76
2024/03/15 00:41:24;;;;;;;0.70;0.70;;;;;;;;;;5047569;27;58588;-76
2024/03/15 00:43:51;;;;;;;0.60;0.60;;;;;;;;;;5048297;28;58403;-75
2024/03/15 00:46:17;;;;;;;1.00;0.90;;;;;;;;;;5046971;28;59093;-74
2024/03/15 00:48:42;;;;;;;0.75;0.75;;;;;;;;;;5064076;27;57968;-74
2024/03/15 00:51:10;;;;;;;0.80;0.80;;;;;;;;;;5046872;28;60320;-74
2024/03/15 00:53:36;;;;;;;;;;;;;;;;;;5048696;28;58366;-75
2024/03/15 00:56:01;;;;;;;0.60;0.60;;;;;;;;;;5048643;28;57754;-75
2024/03/15 00:58:27;;;;;;;0.60;0.60;;;;;;;;;;5045683;28;58544;-74
2024/03/15 01:00:52;;;;;;;0.75;0.70;;;;;;;;;;5046467;28;59614;-74
2024/03/15 01:03:18;;;;;;;0.80;0.80;;;;;;;;;;5046092;28;58379;-74
2024/03/15 01:05:44;;;;;;;0.70;0.70;;;;;;;;;;5045085;28;59443;-75
2024/03/15 01:08:09;;;;;;;0.80;0.80;;;;;;;;;;5047427;27;58519;-75
2024/03/15 01:10:34;;;;;;;0.60;0.60;;;;;;;;;;5048081;28;58627;-75
2024/03/15 01:12:59;;;;;;;0.97;0.90;;;;;;;;;;5047862;27;58453;-74
2024/03/15 01:15:25;;;;;;;0.70;0.60;;;;;;;;;;5045984;28;58323;-74
2024/03/15 01:17:53;;;;;;;0.77;0.70;;;;;;;;;;5047842;27;58580;-74
2024/03/15 01:20:18;;;;;;;;;;;;;;;;;;5045391;28;58127;-74
2024/03/15 01:22:44;;;;;;;0.82;0.80;;;;;;;;;;5048445;28;58357;-75
2024/03/15 01:25:09;;;;;;;0.60;0.60;;;;;;;;;;5046799;28;61160;-75
2024/03/15 01:27:35;;;;;;;0.60;0.60;;;;;;;;;;5047123;27;57912;-74
2024/03/15 01:30:00;;;;;;;0.47;0.47;;;;;;;;;;5045872;28;59556;-75
2024/03/15 01:32:25;;;;;;;0.60;0.60;;;;;;;;;;5046203;27;58479;-75
2024/03/15 01:34:50;;;;;;;0.53;0.53;;;;;;;;;;5047319;28;58316;-74
2024/03/15 01:37:15;;;;;;;0.53;0.53;;;;;;;;;;5047276;27;60345;-75
2024/03/15 01:39:41;;;;;;;0.73;0.73;;;;;;;;;;5045771;28;58554;-74
2024/03/15 01:42:06;;;;;;;0.70;0.70;;;;;;;;;;5046678;27;58350;-75
2024/03/15 01:44:51;;;;;;;0.70;0.70;;;;;;;;;;5047797;28;59283;-75
2024/03/15 01:47:17;;;;;;;0.43;0.43;;;;;;;;;;5046167;28;58946;-74
2024/03/15 01:49:42;;;;;;;0.80;0.80;;;;;;;;;;5048303;28;58308;-74
2024/03/15 01:52:08;;;;;;;0.70;0.70;;;;;;;;;;5045925;28;58375;-75
2024/03/15 01:54:33;;;;;;;0.70;0.70;;;;;;;;;;5045448;28;57824;-75
2024/03/15 01:56:58;;;;;;;0.77;0.77;;;;;;;;;;5046083;28;58363;-75
2024/03/15 01:59:25;;;;;;;0.90;0.90;;;;;;;;;;5045551;27;59646;-75
2024/03/15 02:01:58;;;;;;;0.60;0.60;;;;;;;;;;5046852;28;58359;-75
2024/03/15 02:04:24;;;;;;;0.60;0.50;;;;;;;;;;5047629;28;63125;-75
2024/03/15 02:06:49;;;;;;;0.93;0.70;;;;;;;;;;5045215;28;59185;-75
2024/03/15 02:09:15;;;;;;;0.70;0.70;;;;;;;;;;5047582;28;58488;-75
2024/03/15 02:11:40;;;;;;;0.60;0.60;;;;;;;;;;5045123;28;58712;-75
2024/03/15 02:14:05;;;;;;;0.63;0.63;;;;;;;;;;5045919;27;58494;-75
2024/03/15 02:16:31;;;;;;;0.47;0.47;;;;;;;;;;5045244;28;59836;-74
2024/03/15 02:18:56;;;;;;;0.60;0.60;;;;;;;;;;5045619;28;58988;-75
2024/03/15 02:21:22;;;;;;;0.60;0.60;;;;;;;;;;5045607;28;58494;-74
2024/03/15 02:23:47;;;;;;;0.50;0.50;;;;;;;;;;5045250;28;59524;-75
2024/03/15 02:26:12;;;;;;;1.03;0.60;;;;;;;;;;5044955;27;59008;-75
2024/03/15 02:28:38;;;;;;;0.80;0.80;;;;;;;;;;5047740;28;58415;-75
2024/03/15 02:31:03;;;;;;;0.73;0.73;;;;;;;;;;5045483;28;59483;-75
2024/03/15 02:33:29;;;;;;;0.73;0.73;;;;;;;;;;5046831;27;58582;-75
2024/03/15 02:35:54;;;;;;;0.60;0.60;;;;;;;;;;5046636;28;58496;-75
2024/03/15 02:38:19;;;;;;;0.80;0.80;;;;;;;;;;5045486;28;58760;-75
2024/03/15 02:40:44;;;;;;;0.82;0.82;;;;;;;;;;5046902;28;58435;-74
2024/03/15 02:43:10;;;;;;;0.70;0.60;;;;;;;;;;5046439;28;59346;-75
2024/03/15 02:45:35;;;;;;;0.80;0.80;;;;;;;;;;5045398;28;58482;-75
2024/03/15 02:48:01;;;;;;;0.60;0.60;;;;;;;;;;5046325;28;58383;-75
2024/03/15 02:50:26;;;;;;;0.98;0.80;;;;;;;;;;5045769;28;60580;-75
2024/03/15 02:52:52;;;;;;;0.77;0.77;;;;;;;;;;5045683;28;59778;-75
2024/03/15 02:55:18;;;;;;;0.60;0.60;;;;;;;;;;5045647;27;59723;-75
2024/03/15 02:57:43;;;;;;;0.80;0.80;;;;;;;;;;5045603;28;59019;-75
2024/03/15 03:00:09;;;;;;;0.70;0.70;;;;;;;;;;5044091;27;58243;-75
2024/03/15 03:02:34;;;;;;;1.27;1.17;;;;;;;;;;5043528;28;59301;-75
2024/03/15 03:05:00;;;;;;;0.80;0.80;;;;;;;;;;5043754;27;58875;-75
2024/03/15 03:07:25;;;;;;;0.77;0.77;;;;;;;;;;5046351;28;57859;-74
2024/03/15 03:09:50;;;;;;;0.60;0.60;;;;;;;;;;5045275;28;59463;-74
2024/03/15 03:12:15;;;;;;;0.50;0.50;;;;;;;;;;5045506;28;58741;-74
2024/03/15 03:14:40;;;;;;;0.70;0.70;;;;;;;;;;5044436;28;58335;-76
2024/03/15 03:17:06;;;;;;;0.80;0.80;;;;;;;;;;5044779;28;60946;-76
2024/03/15 03:19:31;;;;;;;0.60;0.60;;;;;;;;;;5047271;28;58365;-76
2024/03/15 03:21:56;;;;;;;0.77;0.77;;;;;;;;;;5044700;27;59216;-76
2024/03/15 03:24:21;;;;;;;0.57;0.57;;;;;;;;;;5045704;28;58770;-76
2024/03/15 03:26:46;;;;;;;1.02;0.80;;;;;;;;;;5045370;27;58534;-76
2024/03/15 03:29:12;;;;;;;0.63;0.63;;;;;;;;;;5045893;28;58490;-76
2024/03/15 03:31:37;;;;;;;0.80;0.80;;;;;;;;;;5044479;28;59106;-76
2024/03/15 03:34:03;;;;;;;0.75;0.75;;;;;;;;;;5047147;28;58415;-76
2024/03/15 03:36:28;;;;;;;0.55;0.50;;;;;;;;;;5048618;28;59436;-76
2024/03/15 03:38:54;;;;;;;0.52;0.52;;;;;;;;;;5048610;28;58355;-76
2024/03/15 03:41:19;;;;;;;0.85;0.85;;;;;;;;;;5049527;28;59877;-76
2024/03/15 03:43:44;;;;;;;0.70;0.70;;;;;;;;;;5049033;28;58498;-76
2024/03/15 03:46:11;;;;;;;0.63;0.60;;;;;;;;;;5048446;27;58489;-76
2024/03/15 03:48:36;;;;;;;0.65;0.63;;;;;;;;;;5048861;28;59571;-76
2024/03/15 03:51:01;;;;;;;0.90;0.75;;;;;;;;;;5047190;28;60587;-76
2024/03/15 03:53:26;;;;;;;0.87;0.80;;;;;;;;;;5048526;28;58415;-76
2024/03/15 03:55:51;;;;;;;0.85;0.85;;;;;;;;;;5049929;28;59140;-76
2024/03/15 03:58:17;;;;;;;0.65;0.65;;;;;;;;;;5048490;28;58312;-76
2024/03/15 04:00:42;;;;;;;1.20;1.10;;;;;;;;;;5048440;27;58377;-76
2024/03/15 04:03:07;;;;;;;1.00;1.00;;;;;;;;;;5047334;27;58650;-76
2024/03/15 04:05:32;;;;;;;1.00;1.00;;;;;;;;;;5048212;28;58482;-76
2024/03/15 04:07:57;;;;;;;0.90;0.80;;;;;;;;;;5047716;28;59181;-76
2024/03/15 04:10:23;;;;;;;0.80;0.80;;;;;;;;;;5047945;28;58907;-76
2024/03/15 04:12:49;;;;;;;0.95;0.95;;;;;;;;;;5048271;27;58336;-75
2024/03/15 04:15:14;;;;;;;0.88;0.88;;;;;;;;;;5047003;27;60378;-74
2024/03/15 04:17:42;;;;;;;0.60;0.60;;;;;;;;;;5048241;27;58476;-75
2024/03/15 04:20:12;;;;;;;0.55;0.55;;;;;;;;;;5047789;27;59562;-75
2024/03/15 04:22:37;;;;;;;0.50;0.50;;;;;;;;;;5045110;28;59021;-75
2024/03/15 04:25:02;;;;;;;0.70;0.63;;;;;;;;;;5045912;28;58618;-74
2024/03/15 04:27:28;;;;;;;1.45;0.98;;;;;;;;;;5047384;27;59515;-75
2024/03/15 04:29:53;;;;;;;0.80;0.80;;;;;;;;;;5049858;27;58913;-74
2024/03/15 04:32:19;;;;;;;1.00;0.70;;;;;;;;;;5049948;27;58284;-74
2024/03/15 04:34:47;;;;;;;0.70;0.70;;;;;;;;;;5050767;28;60300;-74
2024/03/15 04:37:14;;;;;;;0.73;0.73;;;;;;;;;;5048360;27;59016;-74
2024/03/15 04:39:39;;;;;;;0.95;0.90;;;;;;;;;;5047896;27;58498;-74
2024/03/15 04:42:04;;;;;;;0.80;0.80;;;;;;;;;;5049458;27;58615;-75
2024/03/15 04:44:33;;;;;;;0.60;0.60;;;;;;;;;;5046571;27;58443;-74
2024/03/15 04:46:58;;;;;;;0.80;0.80;;;;;;;;;;5048810;27;59323;-74
2024/03/15 04:49:24;;;;;;;0.70;0.70;;;;;;;;;;5048068;28;58890;-74
2024/03/15 04:51:51;;;;;;;0.80;0.70;;;;;;;;;;5049682;27;58962;-74
2024/03/15 04:54:16;;;;;;;0.85;0.85;;;;;;;;;;5046970;28;59669;-75
2024/03/15 04:56:42;;;;;;;1.30;0.70;;;;;;;;;;5045976;27;58694;-75
2024/03/15 04:59:07;;;;;;;1.48;0.77;;;;;;;;;;5044265;28;58453;-74
2024/03/15 05:01:32;;;;;;;0.77;0.77;;;;;;;;;;5045152;28;59461;-74
2024/03/15 05:03:57;;;;;;;0.80;0.80;;;;;;;;;;5043534;28;58386;-75
2024/03/15 05:06:25;;;;;;;0.70;0.70;;;;;;;;;;5045792;28;58387;-74
2024/03/15 05:08:50;;;;;;;0.80;0.70;;;;;;;;;;5044093;28;59987;-74
2024/03/15 05:11:16;;;;;;;1.10;0.90;;;;;;;;;;5045564;27;58516;-74
2024/03/15 05:13:42;;;;;;;1.08;0.98;;;;;;;;;;5048251;28;58516;-74
2024/03/15 05:16:12;;;;;;;0.80;0.80;;;;;;;;;;5046391;27;59034;-75
2024/03/15 05:18:37;;;;;;;0.88;0.88;;;;;;;;;;5047234;27;58416;-74
2024/03/15 05:21:03;;;;;;;0.70;0.70;;;;;;;;;;5046893;28;58285;-74
2024/03/15 05:23:29;;;;;;;1.10;1.05;;;;;;;;;;5045451;28;59068;-74
2024/03/15 05:25:54;;;;;;;1.20;1.10;;;;;;;;;;5047452;28;59673;-74
2024/03/15 05:28:19;;;;;;;0.88;0.80;;;;;;;;;;5045620;28;59578;-78
2024/03/15 05:30:44;;;;;;;0.82;0.82;;;;;;;;;;5046494;28;58472;-78
2024/03/15 05:33:10;;;;;;;1.20;1.10;;;;;;;;;;5047025;27;58693;-80
2024/03/15 05:35:35;;;;;;;1.80;1.00;;;;;;;;;;5046230;27;58762;-80
2024/03/15 05:38:00;;;;;;;0.97;0.97;;;;;;;;;;5047534;28;58442;-83
2024/03/15 05:40:26;;;;;;;1.43;1.33;;;;;;;;;;5047172;28;58487;-81
2024/03/15 05:42:53;;;;;;;1.35;1.13;;;;;;;;;;5044897;28;58539;-80
2024/03/15 05:45:20;;;;;;;2.22;1.52;;;;;;;;;;5047627;28;58293;-80
2024/03/15 05:47:46;;;;;;;2.40;1.50;;;;;;;;;;5043429;27;58780;-80
2024/03/15 05:50:12;;;;;;;4.18;1.60;;;;;;;;;;5045331;28;58416;-80
2024/03/15 05:52:38;;;;;;;2.53;1.77;;;;;;;;;;5046568;28;58483;-80
2024/03/15 05:55:04;;;;;;;1.73;1.38;;;;;;;;;;5044203;28;59714;-80
2024/03/15 05:57:29;;;;;;;1.90;1.80;;;;;;;;;;5043255;28;58467;-81
2024/03/15 05:59:55;;;;;;;5.13;1.93;;;;;;;;;;5045455;28;59424;-80
2024/03/15 06:02:20;;;;;;;3.72;1.95;;;;;;;;;;5045075;27;58915;-81
2024/03/15 06:04:45;;;;;;;3.77;1.50;;;;;;;;;;5045986;28;58404;-80
2024/03/15 06:07:10;;;;;;;8.57;2.13;;;;;;;;;;5045737;27;59675;-80
2024/03/15 06:09:38;;;;;;;4.93;2.10;;;;;;;;;;5046562;28;58497;-81
2024/03/15 06:12:03;;;;;;;2.80;1.60;;;;;;;;;;5060084;27;59228;-80
2024/03/15 06:14:29;;;;;;;1.60;1.50;;;;;;;;;;5046697;28;58955;-80
2024/03/15 06:16:54;;;;;;;6.82;2.65;;;;;;;;;;5046956;28;58400;-81
2024/03/15 06:19:19;;;;;;;3.70;1.83;;;;;;;;;;5047360;28;59121;-80
2024/03/15 06:21:46;;;;;;;3.83;2.30;;;;;;;;;;5045862;28;58928;-80
2024/03/15 06:24:13;;;;;;;2.28;1.60;;;;;;;;;;5045981;27;58505;-80
2024/03/15 06:26:40;;;;;;;3.55;2.15;;;;;;;;;;5044545;28;60550;-80
2024/03/15 06:29:05;;;;;;;3.47;1.77;;;;;;;;;;5046475;28;58389;-80
2024/03/15 06:31:30;;;;;;;4.27;2.07;;;;;;;;;;5047314;28;59401;-81
2024/03/15 06:33:57;;;;;;;4.00;2.20;;;;;;;;;;5046264;27;58293;-78
2024/03/15 06:36:29;;;;;;;5.63;2.25;;;;;;;;;;5059504;27;58366;-78
2024/03/15 06:38:57;;;;;;;2.40;1.95;;;;;;;;;;5045817;28;59499;-78
2024/03/15 06:43:58;;;;;;;4.30;2.57;;;;;;;;;;5046331;28;58380;-78
2024/03/15 06:46:25;;;;;;;2.63;1.95;;;;;;;;;;5046130;28;64835;-78
2024/03/15 06:48:59;;;;;;;3.63;1.65;;;;;;;;;;5045955;27;58566;-78
2024/03/15 06:54:20;;;;;;;1.77;1.33;;;;;;;;;;5023055;28;58745;-78
2024/03/15 06:56:45;;;;;;;2.92;1.52;;;;;;;;;;5046529;28;58468;-78
2024/03/15 06:59:10;;;;;;;5.30;1.60;;;;;;;;;;5045612;28;58498;-78
2024/03/15 07:01:36;;;;;;;2.63;1.45;;;;;;;;;;5045210;28;58482;-78
2024/03/15 07:04:01;;;;;;;1.90;1.67;;;;;;;;;;5045593;28;58394;-78
2024/03/15 07:06:27;;;;;;;3.55;1.83;;;;;;;;;;5046145;27;59401;-78
2024/03/15 07:08:53;;;;;;;3.63;1.75;;;;;;;;;;5047016;27;59113;-78
2024/03/15 07:11:18;;;;;;;4.60;2.70;;;;;;;;;;5050305;27;58493;-78
2024/03/15 07:13:43;;;;;;;5.57;3.23;;;;;;;;;;5050172;28;58888;-77
2024/03/15 07:16:08;;;;;;;2.28;1.48;;;;;;;;;;5048799;28;58359;-78
2024/03/15 07:18:34;;;;;;;5.18;1.75;;;;;;;;;;5048529;28;60538;-78
2024/03/15 07:20:59;;;;;;;2.95;1.98;;;;;;;;;;5048786;28;58629;-77
2024/03/15 07:23:26;;;;;;;3.97;2.23;;;;;;;;;;5049448;28;58369;-78
2024/03/15 07:25:51;;;;;;;2.38;1.40;;;;;;;;;;5049770;28;59238;-78
2024/03/15 07:28:19;;;;;;;2.45;1.58;;;;;;;;;;5048847;27;59807;-78
2024/03/15 07:30:46;;;;;;;4.57;2.33;;;;;;;;;;5049689;27;58482;-78
2024/03/15 07:33:11;;;;;;;1.73;1.52;;;;;;;;;;5048192;28;58489;-77
2024/03/15 07:35:36;;;;;;;2.95;1.95;;;;;;;;;;5048013;28;58368;-78
2024/03/15 07:38:04;;;;;;;2.53;1.25;;;;;;;;;;5049422;28;58525;-79
2024/03/15 07:40:29;;;;;;;3.55;1.58;;;;;;;;;;5049292;28;58898;-78
2024/03/15 07:42:56;;;;;;;2.45;1.63;;;;;;;;;;5049789;27;58261;-78
2024/03/15 07:45:21;;;;;;;2.10;1.30;;;;;;;;;;5048459;27;60210;-78
2024/03/15 07:47:47;;;;;;;3.30;1.83;;;;;;;;;;5047638;27;59392;-78
2024/03/15 07:50:12;;;;;;;2.88;1.95;;;;;;;;;;5048608;27;58498;-78
2024/03/15 07:52:38;;;;;;;3.00;1.50;;;;;;;;;;5050065;28;59395;-80
2024/03/15 07:55:03;;;;;;;2.25;1.92;;;;;;;;;;5046033;28;58300;-80
2024/03/15 07:57:29;;;;;;;1.67;1.40;;;;;;;;;;5049731;27;60656;-80
2024/03/15 07:59:55;;;;;;;3.78;1.67;;;;;;;;;;5047724;27;58955;-80
2024/03/15 08:02:24;;;;;;;2.25;1.95;;;;;;;;;;5048899;27;58384;-80
2024/03/15 08:04:50;;;;;;;1.95;1.45;;;;;;;;;;5050161;28;59484;-80
2024/03/15 08:07:15;;;;;;;5.25;2.13;;;;;;;;;;5048060;28;59359;-80
2024/03/15 08:09:40;;;;;;;4.37;1.40;;;;;;;;;;5049703;28;58440;-80
2024/03/15 08:12:06;;;;;;;2.57;1.20;;;;;;;;;;5049173;28;59429;-80
2024/03/15 08:14:32;;;;;;;2.95;1.70;;;;;;;;;;5049741;28;58892;-80
2024/03/15 08:16:57;;;;;;;1.27;1.00;;;;;;;;;;5049186;28;59458;-80
2024/03/15 08:19:23;;;;;;;2.05;1.67;;;;;;;;;;5049445;28;58411;-81
2024/03/15 08:21:51;;;;;;;3.83;1.70;;;;;;;;;;5048708;28;58545;-81
2024/03/15 08:24:16;;;;;;;2.95;1.35;;;;;;;;;;5048310;28;59659;-81
2024/03/15 08:26:41;;;;;;;1.33;1.20;;;;;;;;;;5046999;27;59284;-81
2024/03/15 08:29:08;;;;;;;3.13;1.67;;;;;;;;;;5048580;28;58384;-80
2024/03/15 08:31:33;;;;;;;1.90;1.60;;;;;;;;;;5048544;28;58525;-79
2024/03/15 08:34:04;;;;;;;2.28;1.40;;;;;;;;;;5046924;28;58355;-80
2024/03/15 08:36:32;;;;;;;1.48;1.35;;;;;;;;;;5048242;28;58676;-80
2024/03/15 08:38:57;;;;;;;1.05;0.93;;;;;;;;;;5047424;27;59094;-81
2024/03/15 08:41:22;;;;;;;1.57;1.37;;;;;;;;;;5048356;27;58469;-81
2024/03/15 08:43:49;;;;;;;2.45;1.77;;;;;;;;;;5048999;28;58539;-80
2024/03/15 08:46:14;;;;;;;1.83;0.90;;;;;;;;;;5046553;28;59176;-81
2024/03/15 08:48:41;;;;;;;1.25;1.15;;;;;;;;;;5062598;27;57972;-81
2024/03/15 08:51:08;;;;;;;2.55;1.60;;;;;;;;;;5048450;28;60142;-80
2024/03/15 08:53:33;;;;;;;1.20;1.10;;;;;;;;;;5046101;27;58873;-78
2024/03/15 08:55:58;;;;;;;1.95;1.10;;;;;;;;;;5048981;28;58419;-78
2024/03/15 08:58:26;;;;;;;2.40;1.33;;;;;;;;;;5048041;28;65390;-78
2024/03/15 09:00:52;;;;;;;1.13;1.05;;;;;;;;;;5046290;27;58399;-78
2024/03/15 09:03:17;;;;;;;1.45;1.00;;;;;;;;;;5048622;27;59606;-80
2024/03/15 09:05:44;;;;;;;2.25;1.23;;;;;;;;;;5047565;28;58511;-81
2024/03/15 09:08:11;;;;;;;2.03;1.10;;;;;;;;;;5047561;28;58607;-81
2024/03/15 09:10:36;;;;;;;1.30;1.20;;;;;;;;;;5048296;28;59655;-80
2024/03/15 09:13:01;;;;;;;0.93;0.90;;;;;;;;;;5046442;27;59346;-81
2024/03/15 09:15:26;;;;;;;2.03;1.23;;;;;;;;;;5046021;28;58407;-80
2024/03/15 09:17:52;;;;;;;0.90;0.80;;;;;;;;;;5047613;28;60287;-80
2024/03/15 09:22:42;;;;;;;1.48;0.80;;;;;;;;;;5046598;28;58326;-80
2024/03/15 09:25:11;;;;;;;1.10;1.00;;;;;;;;;;5046115;28;58581;-80
2024/03/15 09:27:36;;;;;;;1.35;1.15;;;;;;;;;;5046789;27;58412;-80
2024/03/15 09:30:16;;;;;;;0.90;0.90;;;;;;;;;;5045920;28;59106;-81
2024/03/15 09:32:41;;;;;;;1.63;1.50;;;;;;;;;;5046585;27;59355;-80
2024/03/15 09:35:06;;;;;;;1.00;1.00;;;;;;;;;;5048303;27;58527;-80
2024/03/15 09:37:36;;;;;;;1.00;0.90;;;;;;;;;;5047707;28;59880;-80
2024/03/15 09:40:03;;;;;;;4.07;1.60;;;;;;;;;;5046653;28;59060;-81
2024/03/15 09:42:29;;;;;;;1.02;1.00;;;;;;;;;;5046205;28;58476;-81
2024/03/15 09:44:55;;;;;;;1.17;1.08;;;;;;;;;;5046308;28;58799;-81
2024/03/15 09:47:20;;;;;;;1.20;1.10;;;;;;;;;;5047253;28;58462;-80
2024/03/15 09:49:47;;;;;;;1.10;0.90;;;;;;;;;;5047535;28;59252;-81
2024/03/15 09:52:14;;;;;;;0.90;0.90;;;;;;;;;;5045801;28;58912;-80
2024/03/15 09:54:40;;;;;;;1.50;1.20;;;;;;;;;;5046465;27;58322;-80
2024/03/15 09:57:06;;;;;;;1.93;1.33;;;;;;;;;;5046786;28;59603;-81
2024/03/15 09:59:34;;;;;;;1.13;1.02;;;;;;;;;;5046246;27;58880;-80
2024/03/15 10:01:59;;;;;;;1.10;1.00;;;;;;;;;;5047670;28;58379;-81
2024/03/15 10:04:25;;;;;;;1.60;0.70;;;;;;;;;;5047708;28;58372;-80
2024/03/15 10:06:50;;;;;;;1.27;0.98;;;;;;;;;;5047065;28;58590;-79
2024/03/15 10:09:17;;;;;;;1.30;1.20;;;;;;;;;;5047610;28;58806;-80
2024/03/15 10:11:42;;;;;;;1.60;0.80;;;;;;;;;;5046069;28;58420;-80
2024/03/15 10:14:08;;;;;;;0.93;0.80;;;;;;;;;;5046968;28;58430;-80
2024/03/15 10:16:37;;;;;;;0.93;0.77;;;;;;;;;;5046831;28;59202;-79
2024/03/15 10:19:03;;;;;;;0.90;0.90;;;;;;;;;;5046310;28;59157;-81
2024/03/15 10:21:28;;;;;;;1.00;0.90;;;;;;;;;;5046839;28;57892;-80
2024/03/15 10:23:53;;;;;;;0.70;0.70;;;;;;;;;;5045889;28;59012;-80
2024/03/15 10:26:18;;;;;;;0.82;0.80;;;;;;;;;;5046293;28;58470;-80
2024/03/15 10:28:43;;;;;;;1.30;1.20;;;;;;;;;;5047235;28;59310;-80
2024/03/15 10:31:11;;;;;;;1.45;0.85;;;;;;;;;;5045383;28;59071;-80
2024/03/15 10:33:36;;;;;;;1.80;0.80;;;;;;;;;;5046970;27;58308;-81
2024/03/15 10:36:03;;;;;;;1.93;1.33;;;;;;;;;;5045804;28;59458;-80
2024/03/15 10:38:28;;;;;;;1.20;0.82;;;;;;;;;;5045388;28;58866;-80
2024/03/15 10:40:54;;;;;;;0.73;0.73;;;;;;;;;;5045440;28;58412;-80
2024/03/15 10:43:19;;;;;;;0.70;0.70;;;;;;;;;;5045981;28;59561;-80
2024/03/15 10:45:48;;;;;;;0.70;0.60;;;;;;;;;;5046486;27;59887;-81
2024/03/15 10:48:14;;;;;;;0.68;0.68;;;;;;;;;;5046429;27;59517;-80
2024/03/15 10:50:40;;;;;;;0.60;0.60;;;;;;;;;;5045702;27;59038;-81
2024/03/15 10:53:08;;;;;;;1.23;1.13;;;;;;;;;;5045235;28;58404;-80
2024/03/15 10:55:34;;;;;;;0.45;0.45;;;;;;;;;;5047286;28;59607;-81
2024/03/15 10:58:00;;;;;;;1.23;0.70;;;;;;;;;;5045399;28;58717;-80
2024/03/15 11:00:28;;;;;;;1.05;0.75;;;;;;;;;;5046026;28;57705;-79
2024/03/15 11:02:55;;;;;;;1.60;0.88;;;;;;;;;;5044437;28;60627;-80
2024/03/15 11:05:21;;;;;;;0.70;0.70;;;;;;;;;;5045171;27;59238;-81
2024/03/15 11:07:47;;;;;;;0.93;0.82;;;;;;;;;;5047441;28;58450;-80
2024/03/15 11:10:21;;;;;;;0.55;0.50;;;;;;;;;;5045030;27;59906;-80
2024/03/15 11:12:50;;;;;;;1.92;1.20;;;;;;;;;;5045861;27;58387;-78
2024/03/15 11:15:17;;;;;;;1.13;1.02;;;;;;;;;;5044277;28;58375;-78
2024/03/15 11:17:43;;;;;;;1.65;1.20;;;;;;;;;;5045321;27;59038;-78
2024/03/15 11:20:12;;;;;;;2.43;1.17;;;;;;;;;;5044243;28;58359;-78
2024/03/15 11:22:37;;;;;;;0.50;0.50;;;;;;;;;;5047037;28;59434;-80
2024/03/15 11:25:02;;;;;;;1.27;0.80;;;;;;;;;;5044735;28;58481;-80
2024/03/15 11:27:27;;;;;;;0.67;0.60;;;;;;;;;;5046098;27;58372;-80
2024/03/15 11:29:56;;;;;;;0.60;0.60;;;;;;;;;;5045017;28;59601;-80
2024/03/15 11:32:21;;;;;;;0.68;0.55;;;;;;;;;;5045973;27;58297;-80
2024/03/15 11:34:48;;;;;;;1.07;0.70;;;;;;;;;;5045674;28;61074;-80
2024/03/15 11:37:14;;;;;;;0.80;0.73;;;;;;;;;;5044712;28;59001;-80
2024/03/15 11:39:39;;;;;;;0.60;0.60;;;;;;;;;;5046310;28;58203;-80
2024/03/15 11:42:07;;;;;;;1.07;0.70;;;;;;;;;;5045707;28;59272;-81
2024/03/15 11:44:32;;;;;;;0.73;0.73;;;;;;;;;;5044642;28;58747;-81
2024/03/15 11:46:58;;;;;;;0.93;0.80;;;;;;;;;;5045905;28;58855;-80
2024/03/15 11:49:23;;;;;;;0.70;0.70;;;;;;;;;;5044855;28;59597;-80
2024/03/15 11:51:58;;;;;;;0.60;0.60;;;;;;;;;;5045725;28;58807;-80
2024/03/15 11:54:23;;;;;;;0.80;0.80;;;;;;;;;;5045262;28;59938;-80
2024/03/15 11:56:57;;;;;;;0.97;0.70;;;;;;;;;;5048336;27;59273;-80
2024/03/15 11:59:22;;;;;;;0.98;0.70;;;;;;;;;;5049903;28;58042;-80
2024/03/15 12:01:47;;;;;;;0.50;0.50;;;;;;;;;;5050750;28;60269;-80
2024/03/15 12:04:12;;;;;;;0.50;0.50;;;;;;;;;;5047780;28;59045;-80
2024/03/15 12:06:39;;;;;;;1.30;0.70;;;;;;;;;;5049285;27;58086;-80
2024/03/15 12:09:12;;;;;;;0.50;0.50;;;;;;;;;;5049238;28;59444;-80
2024/03/15 12:11:37;;;;;;;0.77;0.77;;;;;;;;;;5048754;27;59890;-80
2024/03/15 12:14:03;;;;;;;0.57;0.57;;;;;;;;;;5048829;28;59193;-80
2024/03/15 12:16:28;;;;;;;1.23;1.00;;;;;;;;;;5047419;28;59212;-80
2024/03/15 12:18:53;;;;;;;1.40;1.15;;;;;;;;;;5049177;28;58396;-80
2024/03/15 12:21:18;;;;;;;0.57;0.43;;;;;;;;;;5049237;28;59213;-80
2024/03/15 12:23:44;;;;;;;0.60;0.60;;;;;;;;;;5047892;28;59473;-78
2024/03/15 12:26:09;;;;;;;0.50;0.50;;;;;;;;;;5048837;28;58355;-78
2024/03/15 12:28:34;;;;;;;0.70;0.70;;;;;;;;;;5048744;28;60152;-79
2024/03/15 12:31:00;;;;;;;0.70;0.70;;;;;;;;;;5044236;28;58981;-78
2024/03/15 12:33:25;;;;;;;1.90;0.85;;;;;;;;;;5049936;27;58229;-80
2024/03/15 12:35:50;;;;;;;0.90;0.80;;;;;;;;;;5047708;27;58610;-79
2024/03/15 12:38:20;;;;;;;0.70;0.70;;;;;;;;;;5046577;27;58422;-80
2024/03/15 12:40:46;;;;;;;0.95;0.70;;;;;;;;;;5047350;28;61254;-80
2024/03/15 12:43:11;;;;;;;0.82;0.68;;;;;;;;;;5047538;27;59233;-80
2024/03/15 12:45:43;;;;;;;0.50;0.50;;;;;;;;;;5047785;28;58399;-80
2024/03/15 12:48:09;;;;;;;0.70;0.70;;;;;;;;;;5048383;28;59728;-81
2024/03/15 12:50:34;;;;;;;0.73;0.73;;;;;;;;;;5047278;27;58858;-81
2024/03/15 12:53:01;;;;;;;0.80;0.80;;;;;;;;;;5048701;28;58347;-80
2024/03/15 12:55:26;;;;;;;0.65;0.40;;;;;;;;;;5048448;28;59433;-80
2024/03/15 12:57:51;;;;;;;1.00;0.70;;;;;;;;;;5048541;28;58541;-79
2024/03/15 13:00:17;;;;;;;0.40;0.40;;;;;;;;;;5047515;28;58456;-80
2024/03/15 13:02:46;;;;;;;0.90;0.90;;;;;;;;;;5046558;28;59179;-80
2024/03/15 13:05:15;;;;;;;0.40;0.40;;;;;;;;;;5047626;28;58392;-81
2024/03/15 13:07:40;;;;;;;1.08;0.65;;;;;;;;;;5046430;28;59351;-81
2024/03/15 13:10:05;;;;;;;0.93;0.93;;;;;;;;;;5044767;28;59067;-80
2024/03/15 13:12:30;;;;;;;0.85;0.75;;;;;;;;;;5046665;28;58436;-80
2024/03/15 13:14:56;;;;;;;2.37;1.53;;;;;;;;;;5045291;28;58773;-80
2024/03/15 13:17:21;;;;;;;0.50;0.50;;;;;;;;;;5046770;28;58788;-80
2024/03/15 13:19:46;;;;;;;0.77;0.77;;;;;;;;;;5047743;28;60022;-80
2024/03/15 13:22:11;;;;;;;0.50;0.50;;;;;;;;;;5045994;27;58506;-81
2024/03/15 13:24:36;;;;;;;2.58;0.50;;;;;;;;;;5046884;27;58472;-80
2024/03/15 13:27:02;;;;;;;0.83;0.83;;;;;;;;;;5045922;27;59498;-80
2024/03/15 13:29:27;;;;;;;0.60;0.57;;;;;;;;;;5046365;27;58927;-80
2024/03/15 13:31:52;;;;;;;0.93;0.50;;;;;;;;;;5045046;28;58336;-79
2024/03/15 13:34:17;;;;;;;0.70;0.60;;;;;;;;;;5045435;28;59530;-80
2024/03/15 13:36:42;;;;;;;0.60;0.60;;;;;;;;;;5045709;27;58793;-80
2024/03/15 13:39:20;;;;;;;0.70;0.50;;;;;;;;;;5047970;27;58529;-80
2024/03/15 13:41:45;;;;;;;0.80;0.80;;;;;;;;;;5046479;27;59145;-80
2024/03/15 13:44:13;;;;;;;2.53;0.80;;;;;;;;;;5047290;28;58410;-80
2024/03/15 13:46:38;;;;;;;3.13;0.93;;;;;;;;;;5048650;28;59758;-80
2024/03/15 13:49:03;;;;;;;1.00;0.50;;;;;;;;;;5045927;28;58423;-80
2024/03/15 13:51:28;;;;;;;0.85;0.85;;;;;;;;;;5045638;28;60319;-80
2024/03/15 13:53:55;;;;;;;3.03;0.40;;;;;;;;;;5044643;28;60050;-80
2024/03/15 13:56:21;;;;;;;0.68;0.60;;;;;;;;;;5043920;27;59363;-80
2024/03/15 13:58:46;;;;;;;1.02;0.70;;;;;;;;;;5045440;28;58631;-80
2024/03/15 14:01:11;;;;;;;2.35;0.82;;;;;;;;;;5043476;28;59446;-80
2024/03/15 14:03:36;;;;;;;1.10;0.47;;;;;;;;;;5046611;27;58355;-80
2024/03/15 14:06:03;;;;;;;2.27;0.57;;;;;;;;;;5044926;28;61091;-79
2024/03/15 14:08:29;;;;;;;0.40;0.40;;;;;;;;;;5043829;28;58953;-80
2024/03/15 14:10:54;;;;;;;0.68;0.50;;;;;;;;;;5046861;28;58451;-80
2024/03/15 14:13:19;;;;;;;1.07;0.67;;;;;;;;;;5045515;28;59533;-80
2024/03/15 14:15:46;;;;;;;0.98;0.47;;;;;;;;;;5045413;28;58927;-80
2024/03/15 14:18:12;;;;;;;1.10;0.93;;;;;;;;;;5045278;28;58477;-78
2024/03/15 14:20:37;;;;;;;2.60;0.75;;;;;;;;;;5046563;28;60464;-81
2024/03/15 14:23:03;;;;;;;0.55;0.32;;;;;;;;;;5045691;28;58509;-78
2024/03/15 14:25:32;;;;;;;0.93;0.88;;;;;;;;;;5047373;28;59137;-79
2024/03/15 14:27:57;;;;;;;0.88;0.40;;;;;;;;;;5044601;28;58455;-78
2024/03/15 14:30:23;;;;;;;2.65;0.98;;;;;;;;;;5044345;28;58450;-81
2024/03/15 14:32:49;;;;;;;1.33;1.00;;;;;;;;;;5045482;28;61015;-80
2024/03/15 14:35:15;;;;;;;0.75;0.50;;;;;;;;;;5043897;28;58659;-81
2024/03/15 14:37:40;;;;;;;2.73;0.93;;;;;;;;;;5046590;28;58454;-80
2024/03/15 14:40:09;;;;;;;5.83;1.50;;;;;;;;;;5046094;27;59719;-79
2024/03/15 14:42:34;;;;;;;4.90;0.93;;;;;;;;;;5046543;27;59862;-79